sensor_id;sensor_type;location;lat;lon;timestamp;pressure;altitude;pressure_sealevel;temperature;humidity
16481;BME280;44634;54.110;12.138;2023-04-27T00:01:46;101612.44;;;7.77;100.00
16481;BME280;44634;54.110;12.138;2023-04-27T00:04:14;101611.41;;;7.38;100.00
16481;BME280;44634;54.110;12.138;2023-04-27T00:06:42;101603.31;;;7.41;100.00
16481;BME280;44634;54.110;12.138;2023-04-27T00:09:12;101611.06;;;7.71;100.00
16481;BME280;44634;54.110;12.138;2023-04-27T00:11:40;101611.44;;;7.51;100.00
16481;BME280;44634;54.110;12.138;2023-04-27T00:14:08;101601.09;;;7.62;100.00
16481;BME280;44634;54.110;12.138;2023-04-27T00:16:36;101611.19;;;7.41;100.00
16481;BME280;44634;54.110;12.138;2023-04-27T00:19:04;101595.22;;;7.44;100.00
16481;BME280;44634;54.110;12.138;2023-04-27T00:21:32;101607.34;;;7.04;100.00
16481;BME280;44634;54.110;12.138;2023-04-27T00:24:00;101594.28;;;7.45;100.00
16481;BME280;44634;54.110;12.138;2023-04-27T00:26:29;101600.06;;;7.65;100.00
16481;BME280;44634;54.110;12.138;2023-04-27T00:28:57;101605.72;;;7.59;100.00
16481;BME280;44634;54.110;12.138;2023-04-27T00:31:24;101594.16;;;7.47;100.00
16481;BME280;44634;54.110;12.138;2023-04-27T00:33:52;101597.66;;;7.19;100.00
16481;BME280;44634;54.110;12.138;2023-04-27T00:36:20;101596.81;;;7.19;100.00
16481;BME280;44634;54.110;12.138;2023-04-27T00:38:47;101600.69;;;6.99;100.00
16481;BME280;44634;54.110;12.138;2023-04-27T00:41:15;101592.41;;;6.91;100.00
16481;BME280;44634;54.110;12.138;2023-04-27T00:43:45;101578.16;;;6.80;100.00
16481;BME280;44634;54.110;12.138;2023-04-27T00:46:13;101575.88;;;7.17;100.00
16481;BME280;44634;54.110;12.138;2023-04-27T00:48:43;101568.84;;;6.75;100.00
16481;BME280;44634;54.110;12.138;2023-04-27T00:51:11;101573.16;;;6.76;100.00
16481;BME280;44634;54.110;12.138;2023-04-27T00:53:38;101567.34;;;7.13;100.00
16481;BME280;44634;54.110;12.138;2023-04-27T00:56:07;101575.44;;;6.96;100.00
16481;BME280;44634;54.110;12.138;2023-04-27T00:58:34;101563.88;;;6.84;100.00
16481;BME280;44634;54.110;12.138;2023-04-27T01:01:04;101561.97;;;6.72;100.00
16481;BME280;44634;54.110;12.138;2023-04-27T01:03:31;101544.72;;;6.97;100.00
16481;BME280;44634;54.110;12.138;2023-04-27T01:05:59;101551.38;;;6.88;100.00
16481;BME280;44634;54.110;12.138;2023-04-27T01:08:27;101552.31;;;7.15;100.00
16481;BME280;44634;54.110;12.138;2023-04-27T01:10:55;101566.97;;;7.05;100.00
16481;BME280;44634;54.110;12.138;2023-04-27T01:13:23;101573.75;;;6.81;100.00
16481;BME280;44634;54.110;12.138;2023-04-27T01:15:51;101550.09;;;6.81;100.00
16481;BME280;44634;54.110;12.138;2023-04-27T01:18:20;101546.50;;;6.68;100.00
16481;BME280;44634;54.110;12.138;2023-04-27T01:20:49;101541.25;;;7.10;100.00
16481;BME280;44634;54.110;12.138;2023-04-27T01:23:18;101552.59;;;7.11;100.00
16481;BME280;44634;54.110;12.138;2023-04-27T01:25:46;101549.59;;;7.17;100.00
16481;BME280;44634;54.110;12.138;2023-04-27T01:28:13;101549.25;;;6.95;100.00
16481;BME280;44634;54.110;12.138;2023-04-27T01:30:41;101561.31;;;7.26;100.00
16481;BME280;44634;54.110;12.138;2023-04-27T01:33:09;101560.28;;;6.71;100.00
16481;BME280;44634;54.110;12.138;2023-04-27T01:35:37;101548.94;;;6.85;100.00
16481;BME280;44634;54.110;12.138;2023-04-27T01:38:04;101560.72;;;7.35;100.00
16481;BME280;44634;54.110;12.138;2023-04-27T01:40:34;101562.09;;;6.85;100.00
16481;BME280;44634;54.110;12.138;2023-04-27T01:43:01;101563.38;;;7.06;100.00
16481;BME280;44634;54.110;12.138;2023-04-27T01:45:29;101567.81;;;7.06;100.00
16481;BME280;44634;54.110;12.138;2023-04-27T01:47:57;101568.19;;;6.85;100.00
16481;BME280;44634;54.110;12.138;2023-04-27T01:50:25;101550.63;;;6.72;100.00
16481;BME280;44634;54.110;12.138;2023-04-27T01:52:53;101564.66;;;6.42;100.00
16481;BME280;44634;54.110;12.138;2023-04-27T01:55:21;101536.19;;;6.35;100.00
16481;BME280;44634;54.110;12.138;2023-04-27T01:57:50;101538.09;;;5.87;100.00
16481;BME280;44634;54.110;12.138;2023-04-27T02:00:18;101510.69;;;6.22;100.00
16481;BME280;44634;54.110;12.138;2023-04-27T02:02:46;101501.31;;;6.33;100.00
16481;BME280;44634;54.110;12.138;2023-04-27T02:05:16;101528.97;;;6.24;100.00
16481;BME280;44634;54.110;12.138;2023-04-27T02:07:44;101527.81;;;6.14;100.00
16481;BME280;44634;54.110;12.138;2023-04-27T02:10:12;101528.13;;;6.23;100.00
16481;BME280;44634;54.110;12.138;2023-04-27T02:12:39;101514.09;;;6.39;100.00
16481;BME280;44634;54.110;12.138;2023-04-27T02:15:09;101524.75;;;6.36;100.00
16481;BME280;44634;54.110;12.138;2023-04-27T02:17:37;101524.72;;;5.91;100.00
16481;BME280;44634;54.110;12.138;2023-04-27T02:20:06;101501.53;;;6.00;100.00
16481;BME280;44634;54.110;12.138;2023-04-27T02:22:34;101498.41;;;6.23;100.00
16481;BME280;44634;54.110;12.138;2023-04-27T02:25:02;101505.25;;;6.25;100.00
16481;BME280;44634;54.110;12.138;2023-04-27T02:27:30;101520.69;;;6.16;100.00
16481;BME280;44634;54.110;12.138;2023-04-27T02:30:03;101498.78;;;6.31;100.00
16481;BME280;44634;54.110;12.138;2023-04-27T02:32:32;101512.97;;;5.99;100.00
16481;BME280;44634;54.110;12.138;2023-04-27T02:35:00;101495.69;;;6.24;100.00
16481;BME280;44634;54.110;12.138;2023-04-27T02:37:28;101500.22;;;6.37;100.00
16481;BME280;44634;54.110;12.138;2023-04-27T02:39:57;101512.03;;;5.84;100.00
16481;BME280;44634;54.110;12.138;2023-04-27T02:42:25;101487.84;;;5.94;100.00
16481;BME280;44634;54.110;12.138;2023-04-27T02:44:53;101480.72;;;5.81;100.00
16481;BME280;44634;54.110;12.138;2023-04-27T02:47:21;101469.22;;;6.13;100.00
16481;BME280;44634;54.110;12.138;2023-04-27T02:49:50;101482.31;;;5.99;100.00
16481;BME280;44634;54.110;12.138;2023-04-27T02:52:18;101484.47;;;6.07;100.00
16481;BME280;44634;54.110;12.138;2023-04-27T02:54:46;101497.72;;;6.19;100.00
16481;BME280;44634;54.110;12.138;2023-04-27T02:57:13;101514.91;;;5.95;100.00
16481;BME280;44634;54.110;12.138;2023-04-27T02:59:41;101512.38;;;5.78;100.00
16481;BME280;44634;54.110;12.138;2023-04-27T03:02:09;101482.22;;;5.85;100.00
16481;BME280;44634;54.110;12.138;2023-04-27T03:04:37;101470.88;;;5.84;100.00
16481;BME280;44634;54.110;12.138;2023-04-27T03:07:06;101469.72;;;5.90;100.00
16481;BME280;44634;54.110;12.138;2023-04-27T03:09:34;101482.81;;;5.90;100.00
16481;BME280;44634;54.110;12.138;2023-04-27T03:12:02;101483.50;;;6.23;100.00
16481;BME280;44634;54.110;12.138;2023-04-27T03:14:29;101499.91;;;6.27;100.00
16481;BME280;44634;54.110;12.138;2023-04-27T03:16:57;101508.56;;;6.43;100.00
16481;BME280;44634;54.110;12.138;2023-04-27T03:19:25;101515.00;;;6.23;100.00
16481;BME280;44634;54.110;12.138;2023-04-27T03:21:53;101523.19;;;6.03;100.00
16481;BME280;44634;54.110;12.138;2023-04-27T03:24:22;101514.00;;;5.96;100.00
16481;BME280;44634;54.110;12.138;2023-04-27T03:26:51;101504.25;;;5.82;100.00
16481;BME280;44634;54.110;12.138;2023-04-27T03:29:19;101488.13;;;5.58;100.00
16481;BME280;44634;54.110;12.138;2023-04-27T03:31:46;101486.41;;;5.73;100.00
16481;BME280;44634;54.110;12.138;2023-04-27T03:34:14;101498.53;;;5.44;100.00
16481;BME280;44634;54.110;12.138;2023-04-27T03:36:42;101484.84;;;6.01;100.00
16481;BME280;44634;54.110;12.138;2023-04-27T03:39:10;101488.97;;;6.05;100.00
16481;BME280;44634;54.110;12.138;2023-04-27T03:41:39;101501.25;;;5.88;100.00
16481;BME280;44634;54.110;12.138;2023-04-27T03:44:07;101508.78;;;6.10;100.00
16481;BME280;44634;54.110;12.138;2023-04-27T03:46:35;101518.88;;;5.86;100.00
16481;BME280;44634;54.110;12.138;2023-04-27T03:49:02;101516.56;;;6.12;100.00
16481;BME280;44634;54.110;12.138;2023-04-27T03:51:30;101516.75;;;5.93;100.00
16481;BME280;44634;54.110;12.138;2023-04-27T03:53:59;101518.88;;;6.02;100.00
16481;BME280;44634;54.110;12.138;2023-04-27T03:56:26;101519.44;;;6.07;100.00
16481;BME280;44634;54.110;12.138;2023-04-27T03:58:55;101522.63;;;5.98;100.00
16481;BME280;44634;54.110;12.138;2023-04-27T04:01:23;101502.47;;;5.83;100.00
16481;BME280;44634;54.110;12.138;2023-04-27T04:03:51;101492.44;;;6.05;100.00
16481;BME280;44634;54.110;12.138;2023-04-27T04:06:19;101484.66;;;5.88;100.00
16481;BME280;44634;54.110;12.138;2023-04-27T04:08:47;101473.31;;;5.87;100.00
16481;BME280;44634;54.110;12.138;2023-04-27T04:11:15;101480.66;;;6.12;100.00
16481;BME280;44634;54.110;12.138;2023-04-27T04:13:42;101490.38;;;5.96;100.00
16481;BME280;44634;54.110;12.138;2023-04-27T04:16:12;101474.63;;;5.96;100.00
16481;BME280;44634;54.110;12.138;2023-04-27T04:18:40;101478.66;;;6.02;100.00
16481;BME280;44634;54.110;12.138;2023-04-27T04:21:08;101480.63;;;5.98;100.00
16481;BME280;44634;54.110;12.138;2023-04-27T04:23:36;101488.75;;;6.23;100.00
16481;BME280;44634;54.110;12.138;2023-04-27T04:26:06;101512.72;;;6.17;100.00
16481;BME280;44634;54.110;12.138;2023-04-27T04:28:35;101507.53;;;6.02;100.00
16481;BME280;44634;54.110;12.138;2023-04-27T04:31:03;101520.66;;;5.86;100.00
16481;BME280;44634;54.110;12.138;2023-04-27T04:33:33;101508.25;;;6.34;100.00
16481;BME280;44634;54.110;12.138;2023-04-27T04:36:02;101517.13;;;6.17;100.00
16481;BME280;44634;54.110;12.138;2023-04-27T04:38:30;101532.75;;;6.48;100.00
16481;BME280;44634;54.110;12.138;2023-04-27T04:40:58;101539.06;;;6.60;100.00
16481;BME280;44634;54.110;12.138;2023-04-27T04:43:26;101539.44;;;6.54;100.00
16481;BME280;44634;54.110;12.138;2023-04-27T04:45:54;101566.50;;;6.26;100.00
16481;BME280;44634;54.110;12.138;2023-04-27T04:48:22;101554.59;;;6.05;100.00
16481;BME280;44634;54.110;12.138;2023-04-27T04:50:51;101540.81;;;6.45;100.00
16481;BME280;44634;54.110;12.138;2023-04-27T04:53:18;101540.09;;;6.57;100.00
16481;BME280;44634;54.110;12.138;2023-04-27T04:55:46;101544.19;;;6.33;100.00
16481;BME280;44634;54.110;12.138;2023-04-27T04:58:14;101511.28;;;6.42;100.00
16481;BME280;44634;54.110;12.138;2023-04-27T05:00:42;101532.91;;;6.31;100.00
16481;BME280;44634;54.110;12.138;2023-04-27T05:03:09;101524.16;;;6.61;100.00
16481;BME280;44634;54.110;12.138;2023-04-27T05:05:37;101533.25;;;6.55;100.00
16481;BME280;44634;54.110;12.138;2023-04-27T05:08:06;101523.41;;;6.73;100.00
16481;BME280;44634;54.110;12.138;2023-04-27T05:10:34;101527.91;;;6.85;100.00
16481;BME280;44634;54.110;12.138;2023-04-27T05:13:02;101544.16;;;6.77;100.00
16481;BME280;44634;54.110;12.138;2023-04-27T05:15:32;101525.00;;;6.90;100.00
16481;BME280;44634;54.110;12.138;2023-04-27T05:18:00;101539.28;;;6.71;100.00
16481;BME280;44634;54.110;12.138;2023-04-27T05:20:28;101521.69;;;7.29;100.00
16481;BME280;44634;54.110;12.138;2023-04-27T05:22:55;101540.19;;;7.27;100.00
16481;BME280;44634;54.110;12.138;2023-04-27T05:25:24;101554.66;;;7.20;100.00
16481;BME280;44634;54.110;12.138;2023-04-27T05:27:52;101556.22;;;7.37;100.00
16481;BME280;44634;54.110;12.138;2023-04-27T05:30:20;101574.94;;;7.32;100.00
16481;BME280;44634;54.110;12.138;2023-04-27T05:32:48;101561.06;;;7.57;100.00
16481;BME280;44634;54.110;12.138;2023-04-27T05:35:16;101575.09;;;7.43;100.00
16481;BME280;44634;54.110;12.138;2023-04-27T05:37:44;101596.16;;;7.29;100.00
16481;BME280;44634;54.110;12.138;2023-04-27T05:40:13;101586.38;;;7.45;100.00
16481;BME280;44634;54.110;12.138;2023-04-27T05:42:44;101589.13;;;7.15;100.00
16481;BME280;44634;54.110;12.138;2023-04-27T05:45:12;101579.78;;;7.67;100.00
16481;BME280;44634;54.110;12.138;2023-04-27T05:47:40;101606.72;;;7.70;100.00
16481;BME280;44634;54.110;12.138;2023-04-27T05:50:09;101607.09;;;7.64;100.00
16481;BME280;44634;54.110;12.138;2023-04-27T05:52:37;101612.66;;;7.60;100.00
16481;BME280;44634;54.110;12.138;2023-04-27T05:55:06;101636.41;;;7.87;100.00
16481;BME280;44634;54.110;12.138;2023-04-27T05:57:33;101636.25;;;8.02;100.00
16481;BME280;44634;54.110;12.138;2023-04-27T06:00:04;101642.38;;;8.03;100.00
16481;BME280;44634;54.110;12.138;2023-04-27T06:02:36;101659.59;;;8.21;100.00
16481;BME280;44634;54.110;12.138;2023-04-27T06:05:04;101654.53;;;8.72;100.00
16481;BME280;44634;54.110;12.138;2023-04-27T06:07:32;101678.13;;;8.61;100.00
16481;BME280;44634;54.110;12.138;2023-04-27T06:10:00;101682.31;;;8.51;100.00
16481;BME280;44634;54.110;12.138;2023-04-27T06:12:28;101676.88;;;8.79;100.00
16481;BME280;44634;54.110;12.138;2023-04-27T06:14:56;101698.81;;;7.99;100.00
16481;BME280;44634;54.110;12.138;2023-04-27T06:17:25;101666.38;;;7.98;100.00
16481;BME280;44634;54.110;12.138;2023-04-27T06:19:53;101645.84;;;8.03;100.00
16481;BME280;44634;54.110;12.138;2023-04-27T06:22:21;101648.31;;;7.92;100.00
16481;BME280;44634;54.110;12.138;2023-04-27T06:24:48;101654.47;;;8.47;100.00
16481;BME280;44634;54.110;12.138;2023-04-27T06:27:16;101665.78;;;8.61;100.00
16481;BME280;44634;54.110;12.138;2023-04-27T06:29:44;101678.72;;;8.52;100.00
16481;BME280;44634;54.110;12.138;2023-04-27T06:32:11;101695.59;;;8.89;100.00
16481;BME280;44634;54.110;12.138;2023-04-27T06:34:40;101713.13;;;8.63;100.00
16481;BME280;44634;54.110;12.138;2023-04-27T06:37:08;101710.41;;;9.42;100.00
16481;BME280;44634;54.110;12.138;2023-04-27T06:39:36;101744.28;;;8.71;100.00
16481;BME280;44634;54.110;12.138;2023-04-27T06:42:04;101734.06;;;9.44;100.00
16481;BME280;44634;54.110;12.138;2023-04-27T06:44:31;101755.03;;;8.80;100.00
16481;BME280;44634;54.110;12.138;2023-04-27T06:46:59;101744.72;;;9.30;100.00
16481;BME280;44634;54.110;12.138;2023-04-27T06:49:27;101754.47;;;9.02;100.00
16481;BME280;44634;54.110;12.138;2023-04-27T06:51:56;101753.78;;;9.64;100.00
16481;BME280;44634;54.110;12.138;2023-04-27T06:54:24;101774.16;;;9.74;100.00
16481;BME280;44634;54.110;12.138;2023-04-27T06:56:52;101773.22;;;9.75;100.00
16481;BME280;44634;54.110;12.138;2023-04-27T06:59:20;101774.91;;;9.51;100.00
16481;BME280;44634;54.110;12.138;2023-04-27T07:01:47;101786.91;;;10.06;100.00
16481;BME280;44634;54.110;12.138;2023-04-27T07:04:15;101810.59;;;10.07;100.00
16481;BME280;44634;54.110;12.138;2023-04-27T07:06:43;101810.34;;;10.36;100.00
16481;BME280;44634;54.110;12.138;2023-04-27T07:09:13;101820.63;;;9.64;100.00
16481;BME280;44634;54.110;12.138;2023-04-27T07:11:52;101826.66;;;9.41;100.00
16481;BME280;44634;54.110;12.138;2023-04-27T07:14:21;101831.84;;;9.80;100.00
16481;BME280;44634;54.110;12.138;2023-04-27T07:16:48;101827.84;;;9.75;100.00
16481;BME280;44634;54.110;12.138;2023-04-27T07:19:16;101835.63;;;9.64;100.00
16481;BME280;44634;54.110;12.138;2023-04-27T07:21:44;101838.69;;;9.96;100.00
16481;BME280;44634;54.110;12.138;2023-04-27T07:24:13;101835.41;;;9.67;100.00
16481;BME280;44634;54.110;12.138;2023-04-27T07:26:41;101846.53;;;10.10;100.00
16481;BME280;44634;54.110;12.138;2023-04-27T07:29:08;101857.94;;;9.60;100.00
16481;BME280;44634;54.110;12.138;2023-04-27T07:31:52;101854.16;;;9.89;100.00
16481;BME280;44634;54.110;12.138;2023-04-27T07:34:21;101843.75;;;10.37;100.00
16481;BME280;44634;54.110;12.138;2023-04-27T07:36:50;101863.88;;;9.89;100.00
16481;BME280;44634;54.110;12.138;2023-04-27T07:39:21;101864.94;;;9.86;100.00
16481;BME280;44634;54.110;12.138;2023-04-27T07:41:49;101862.16;;;9.62;100.00
16481;BME280;44634;54.110;12.138;2023-04-27T07:44:17;101855.75;;;10.30;100.00
16481;BME280;44634;54.110;12.138;2023-04-27T07:46:46;101853.28;;;10.27;100.00
16481;BME280;44634;54.110;12.138;2023-04-27T07:49:15;101871.06;;;9.87;100.00
16481;BME280;44634;54.110;12.138;2023-04-27T07:51:42;101884.25;;;9.74;100.00
16481;BME280;44634;54.110;12.138;2023-04-27T07:54:10;101883.72;;;9.81;100.00
16481;BME280;44634;54.110;12.138;2023-04-27T07:56:41;101871.34;;;10.58;100.00
16481;BME280;44634;54.110;12.138;2023-04-27T07:59:08;101870.44;;;10.34;100.00
16481;BME280;44634;54.110;12.138;2023-04-27T08:01:37;101885.09;;;10.38;100.00
16481;BME280;44634;54.110;12.138;2023-04-27T08:04:05;101872.84;;;10.11;100.00
16481;BME280;44634;54.110;12.138;2023-04-27T08:06:33;101896.59;;;9.61;100.00
16481;BME280;44634;54.110;12.138;2023-04-27T08:09:02;101877.19;;;10.25;100.00
16481;BME280;44634;54.110;12.138;2023-04-27T08:11:30;101879.25;;;10.71;100.00
16481;BME280;44634;54.110;12.138;2023-04-27T08:13:59;101881.69;;;10.61;100.00
16481;BME280;44634;54.110;12.138;2023-04-27T08:16:27;101898.72;;;9.94;100.00
16481;BME280;44634;54.110;12.138;2023-04-27T08:18:55;101884.13;;;10.52;100.00
16481;BME280;44634;54.110;12.138;2023-04-27T08:21:26;101891.47;;;10.23;98.48
16481;BME280;44634;54.110;12.138;2023-04-27T08:23:55;101886.47;;;10.56;97.56
16481;BME280;44634;54.110;12.138;2023-04-27T08:26:23;101888.94;;;11.07;92.80
16481;BME280;44634;54.110;12.138;2023-04-27T08:28:51;101893.28;;;11.32;93.63
16481;BME280;44634;54.110;12.138;2023-04-27T08:31:21;101888.56;;;11.71;88.31
16481;BME280;44634;54.110;12.138;2023-04-27T08:33:49;101887.50;;;11.38;88.28
16481;BME280;44634;54.110;12.138;2023-04-27T08:36:17;101883.84;;;11.98;92.05
16481;BME280;44634;54.110;12.138;2023-04-27T08:38:45;101892.47;;;11.43;95.91
16481;BME280;44634;54.110;12.138;2023-04-27T08:41:17;101903.47;;;10.65;82.73
16481;BME280;44634;54.110;12.138;2023-04-27T08:43:48;101915.34;;;10.08;88.58
16481;BME280;44634;54.110;12.138;2023-04-27T08:46:21;101899.03;;;10.53;94.84
16481;BME280;44634;54.110;12.138;2023-04-27T08:48:49;101895.31;;;11.28;90.69
16481;BME280;44634;54.110;12.138;2023-04-27T08:51:18;101905.16;;;11.26;85.21
16481;BME280;44634;54.110;12.138;2023-04-27T08:53:48;101897.69;;;11.55;88.65
16481;BME280;44634;54.110;12.138;2023-04-27T08:56:17;101891.22;;;11.59;81.12
16481;BME280;44634;54.110;12.138;2023-04-27T08:58:45;101899.41;;;11.91;90.45
16481;BME280;44634;54.110;12.138;2023-04-27T09:01:12;101906.06;;;10.90;91.62
16481;BME280;44634;54.110;12.138;2023-04-27T09:03:43;101904.00;;;11.30;95.41
16481;BME280;44634;54.110;12.138;2023-04-27T09:06:12;101897.38;;;12.06;89.84
16481;BME280;44634;54.110;12.138;2023-04-27T09:08:41;101896.22;;;11.51;89.41
16481;BME280;44634;54.110;12.138;2023-04-27T09:11:08;101907.06;;;11.83;94.53
16481;BME280;44634;54.110;12.138;2023-04-27T09:13:38;101879.66;;;12.18;89.39
16481;BME280;44634;54.110;12.138;2023-04-27T09:16:06;101883.13;;;11.96;92.53
16481;BME280;44634;54.110;12.138;2023-04-27T09:18:35;101889.38;;;11.84;90.25
16481;BME280;44634;54.110;12.138;2023-04-27T09:21:05;101889.06;;;12.56;84.45
16481;BME280;44634;54.110;12.138;2023-04-27T09:23:34;101903.41;;;12.08;76.45
16481;BME280;44634;54.110;12.138;2023-04-27T09:26:04;101899.25;;;11.23;80.65
16481;BME280;44634;54.110;12.138;2023-04-27T09:28:34;101903.69;;;11.22;77.28
16481;BME280;44634;54.110;12.138;2023-04-27T09:31:04;101904.09;;;10.56;87.74
16481;BME280;44634;54.110;12.138;2023-04-27T09:33:35;101917.59;;;10.27;84.05
16481;BME280;44634;54.110;12.138;2023-04-27T09:36:05;101903.09;;;10.82;88.45
16481;BME280;44634;54.110;12.138;2023-04-27T09:38:33;101893.03;;;12.05;84.47
16481;BME280;44634;54.110;12.138;2023-04-27T09:41:01;101888.56;;;12.28;82.66
16481;BME280;44634;54.110;12.138;2023-04-27T09:43:29;101886.88;;;12.27;75.67
16481;BME280;44634;54.110;12.138;2023-04-27T09:45:57;101896.06;;;11.42;73.66
16481;BME280;44634;54.110;12.138;2023-04-27T09:48:25;101886.41;;;11.29;77.69
16481;BME280;44634;54.110;12.138;2023-04-27T09:50:53;101892.72;;;11.16;79.11
16481;BME280;44634;54.110;12.138;2023-04-27T09:53:25;101889.41;;;12.29;75.81
16481;BME280;44634;54.110;12.138;2023-04-27T09:56:06;101885.16;;;12.82;67.70
16481;BME280;44634;54.110;12.138;2023-04-27T09:58:49;101900.88;;;11.13;68.59
16481;BME280;44634;54.110;12.138;2023-04-27T10:01:29;101893.94;;;11.47;75.46
16481;BME280;44634;54.110;12.138;2023-04-27T10:04:15;101881.34;;;12.52;72.66
16481;BME280;44634;54.110;12.138;2023-04-27T10:06:57;101864.09;;;14.17;62.01
16481;BME280;44634;54.110;12.138;2023-04-27T10:09:27;101863.19;;;13.76;60.15
16481;BME280;44634;54.110;12.138;2023-04-27T10:12:13;101875.75;;;13.32;61.25
16481;BME280;44634;54.110;12.138;2023-04-27T10:14:51;101849.94;;;15.26;55.21
16481;BME280;44634;54.110;12.138;2023-04-27T10:17:23;101850.66;;;15.37;52.05
16481;BME280;44634;54.110;12.138;2023-04-27T10:19:56;101848.84;;;16.04;46.49
16481;BME280;44634;54.110;12.138;2023-04-27T10:22:36;101848.69;;;15.10;48.72
16481;BME280;44634;54.110;12.138;2023-04-27T10:25:15;101849.50;;;15.30;48.32
16481;BME280;44634;54.110;12.138;2023-04-27T10:27:48;101860.28;;;14.10;56.20
16481;BME280;44634;54.110;12.138;2023-04-27T10:30:18;101869.66;;;14.35;52.17
16481;BME280;44634;54.110;12.138;2023-04-27T10:32:50;101860.75;;;15.63;49.39
16481;BME280;44634;54.110;12.138;2023-04-27T10:35:20;101851.78;;;16.11;44.76
16481;BME280;44634;54.110;12.138;2023-04-27T10:37:48;101860.09;;;16.08;41.58
16481;BME280;44634;54.110;12.138;2023-04-27T10:40:18;101863.63;;;16.35;40.48
16481;BME280;44634;54.110;12.138;2023-04-27T10:42:46;101855.81;;;16.79;40.80
16481;BME280;44634;54.110;12.138;2023-04-27T10:45:25;101874.06;;;15.14;42.51
16481;BME280;44634;54.110;12.138;2023-04-27T10:47:58;101878.59;;;14.64;45.29
16481;BME280;44634;54.110;12.138;2023-04-27T10:50:27;101864.59;;;17.43;42.03
16481;BME280;44634;54.110;12.138;2023-04-27T10:52:58;101875.91;;;16.46;41.23
16481;BME280;44634;54.110;12.138;2023-04-27T10:55:28;101868.66;;;16.66;39.89
16481;BME280;44634;54.110;12.138;2023-04-27T10:57:56;101869.41;;;17.04;40.32
16481;BME280;44634;54.110;12.138;2023-04-27T11:00:26;101870.34;;;17.30;39.08
16481;BME280;44634;54.110;12.138;2023-04-27T11:02:56;101876.78;;;16.00;40.60
16481;BME280;44634;54.110;12.138;2023-04-27T11:05:26;101881.38;;;16.17;42.52
16481;BME280;44634;54.110;12.138;2023-04-27T11:08:05;101876.59;;;16.48;42.22
16481;BME280;44634;54.110;12.138;2023-04-27T11:10:37;101875.00;;;16.65;43.46
16481;BME280;44634;54.110;12.138;2023-04-27T11:13:08;101878.56;;;16.19;42.26
16481;BME280;44634;54.110;12.138;2023-04-27T11:15:44;101887.09;;;15.17;44.35
16481;BME280;44634;54.110;12.138;2023-04-27T11:18:12;101879.34;;;16.39;41.20
16481;BME280;44634;54.110;12.138;2023-04-27T11:20:41;101881.13;;;16.75;40.08
16481;BME280;44634;54.110;12.138;2023-04-27T11:23:09;101880.22;;;16.29;40.97
16481;BME280;44634;54.110;12.138;2023-04-27T11:25:39;101902.81;;;14.30;47.35
16481;BME280;44634;54.110;12.138;2023-04-27T11:28:15;101907.19;;;14.41;54.54
16481;BME280;44634;54.110;12.138;2023-04-27T11:30:43;101885.63;;;16.10;47.14
16481;BME280;44634;54.110;12.138;2023-04-27T11:33:11;101882.03;;;17.11;42.12
16481;BME280;44634;54.110;12.138;2023-04-27T11:35:39;101891.88;;;15.82;42.05
16481;BME280;44634;54.110;12.138;2023-04-27T11:38:14;101899.75;;;14.05;49.19
16481;BME280;44634;54.110;12.138;2023-04-27T11:40:45;101913.47;;;13.47;56.11
16481;BME280;44634;54.110;12.138;2023-04-27T11:43:13;101908.50;;;13.10;60.89
16481;BME280;44634;54.110;12.138;2023-04-27T11:45:41;101912.91;;;12.89;63.20
16481;BME280;44634;54.110;12.138;2023-04-27T11:48:12;101892.72;;;15.53;48.61
16481;BME280;44634;54.110;12.138;2023-04-27T11:50:41;101903.13;;;14.37;49.51
16481;BME280;44634;54.110;12.138;2023-04-27T11:53:09;101903.53;;;14.63;49.65
16481;BME280;44634;54.110;12.138;2023-04-27T11:55:36;101908.88;;;13.70;51.65
16481;BME280;44634;54.110;12.138;2023-04-27T11:58:13;101915.00;;;12.63;59.24
16481;BME280;44634;54.110;12.138;2023-04-27T12:00:41;101904.63;;;14.61;51.11
16481;BME280;44634;54.110;12.138;2023-04-27T12:03:09;101895.34;;;16.39;45.47
16481;BME280;44634;54.110;12.138;2023-04-27T12:05:46;101887.06;;;17.32;42.66
16481;BME280;44634;54.110;12.138;2023-04-27T12:08:15;101884.69;;;17.29;40.77
16481;BME280;44634;54.110;12.138;2023-04-27T12:10:43;101892.22;;;16.80;40.55
16481;BME280;44634;54.110;12.138;2023-04-27T12:13:13;101893.25;;;17.50;37.74
16481;BME280;44634;54.110;12.138;2023-04-27T12:15:41;101881.41;;;18.23;37.48
16481;BME280;44634;54.110;12.138;2023-04-27T12:18:09;101887.66;;;17.79;36.28
16481;BME280;44634;54.110;12.138;2023-04-27T12:20:37;101891.63;;;18.01;35.62
16481;BME280;44634;54.110;12.138;2023-04-27T12:23:05;101883.97;;;18.66;35.23
16481;BME280;44634;54.110;12.138;2023-04-27T12:25:33;101876.09;;;18.05;36.04
16481;BME280;44634;54.110;12.138;2023-04-27T12:28:01;101878.19;;;18.19;35.88
16481;BME280;44634;54.110;12.138;2023-04-27T12:30:31;101873.09;;;18.76;34.92
16481;BME280;44634;54.110;12.138;2023-04-27T12:32:58;101875.88;;;19.49;31.94
16481;BME280;44634;54.110;12.138;2023-04-27T12:35:26;101881.78;;;19.69;31.75
16481;BME280;44634;54.110;12.138;2023-04-27T12:37:57;101869.50;;;18.59;34.91
16481;BME280;44634;54.110;12.138;2023-04-27T12:40:25;101875.84;;;18.16;33.96
16481;BME280;44634;54.110;12.138;2023-04-27T12:42:53;101874.06;;;17.99;35.94
16481;BME280;44634;54.110;12.138;2023-04-27T12:45:20;101872.47;;;18.90;34.88
16481;BME280;44634;54.110;12.138;2023-04-27T12:47:49;101879.56;;;17.36;36.68
16481;BME280;44634;54.110;12.138;2023-04-27T12:50:29;101894.84;;;15.59;38.53